Time,TemperatureF,DewpointF,PressureIn,WindDirection,WindDirectionDegrees,WindSpeedMPH,WindSpeedGustMPH,Humidity,HourlyPrecipIn,Conditions,Clouds,dailyrainin,SolarRadiationWatts/m^2,SoftwareType,DateUTC
2013-01-09 00:03:00,48.0,39.0,30.66,ENE,74,4.0,7.0,70,0.00,,,0.00,0.000000,,2013-01-09 05:03:00,
2013-01-09 00:12:00,48.0,39.0,30.66,ENE,74,4.0,7.0,70,0.00,,,0.00,0.000000,,2013-01-09 05:12:00,
2013-01-09 00:33:00,48.0,40.0,30.66,SSE,156,3.0,6.0,74,0.00,,,0.00,0.000000,,2013-01-09 05:33:00,
2013-01-09 00:43:00,48.0,40.0,30.66,SSE,156,3.0,6.0,74,0.00,,,0.00,0.000000,,2013-01-09 05:43:00,
2013-01-09 00:53:00,48.0,40.0,30.66,SSE,156,3.0,6.0,74,0.00,,,0.00,0.000000,,2013-01-09 05:53:00,
2013-01-09 01:02:00,48.0,40.0,30.66,SSE,156,3.0,6.0,74,0.00,,,0.00,0.000000,,2013-01-09 06:02:00,
2013-01-09 01:12:00,48.0,40.0,30.66,SSE,156,3.0,6.0,74,0.00,,,0.00,0.000000,,2013-01-09 06:12:00,
2013-01-09 01:32:00,46.0,39.0,30.63,SE,135,4.0,6.0,77,0.00,,,0.00,0.000000,,2013-01-09 06:32:00,
2013-01-09 01:43:00,46.0,39.0,30.63,SE,135,4.0,6.0,77,0.00,,,0.00,0.000000,,2013-01-09 06:43:00,
2013-01-09 01:53:00,46.0,39.0,30.63,SE,135,4.0,6.0,77,0.00,,,0.00,0.000000,,2013-01-09 06:53:00,
2013-01-09 02:02:00,46.0,39.0,30.63,SE,135,4.0,6.0,77,0.00,,,0.00,0.000000,,2013-01-09 07:02:00,
2013-01-09 02:12:00,46.0,39.0,30.63,SE,135,4.0,6.0,77,0.00,,,0.00,0.000000,,2013-01-09 07:12:00,
2013-01-09 02:32:00,44.0,38.0,30.63,East,83,3.0,6.0,80,0.00,,,0.00,0.000000,,2013-01-09 07:32:00,
2013-01-09 02:42:00,44.0,38.0,30.63,East,83,3.0,6.0,80,0.00,,,0.00,0.000000,,2013-01-09 07:42:00,
2013-01-09 02:52:00,44.0,38.0,30.63,East,83,3.0,6.0,80,0.00,,,0.00,0.000000,,2013-01-09 07:52:00,
2013-01-09 03:02:00,44.0,38.0,30.63,East,83,3.0,6.0,80,0.00,,,0.00,0.000000,,2013-01-09 08:02:00,
2013-01-09 03:12:00,44.0,38.0,30.63,East,83,3.0,6.0,80,0.00,,,0.00,0.000000,,2013-01-09 08:12:00,
2013-01-09 03:32:00,43.0,39.0,30.65,NE,40,4.0,10.0,85,0.00,,,0.00,0.000000,,2013-01-09 08:32:00,
2013-01-09 03:43:00,43.0,39.0,30.65,NE,40,4.0,10.0,85,0.00,,,0.00,0.000000,,2013-01-09 08:43:00,
2013-01-09 03:53:00,43.0,39.0,30.65,NE,40,4.0,10.0,85,0.00,,,0.00,0.000000,,2013-01-09 08:53:00,
2013-01-09 04:02:00,43.0,39.0,30.65,NE,40,4.0,10.0,85,0.00,,,0.00,0.000000,,2013-01-09 09:02:00,
2013-01-09 04:12:00,43.0,39.0,30.65,NE,40,4.0,10.0,85,0.00,,,0.00,0.000000,,2013-01-09 09:12:00,
2013-01-09 04:32:00,43.0,39.0,30.65,North,354,5.0,9.0,86,0.00,,,0.00,0.000000,,2013-01-09 09:32:00,
2013-01-09 04:42:00,43.0,39.0,30.65,North,354,5.0,9.0,86,0.00,,,0.00,0.000000,,2013-01-09 09:42:00,
2013-01-09 04:53:00,43.0,39.0,30.65,North,354,5.0,9.0,86,0.00,,,0.00,0.000000,,2013-01-09 09:53:00,
2013-01-09 05:02:00,43.0,39.0,30.65,North,354,5.0,9.0,86,0.00,,,0.00,0.000000,,2013-01-09 10:02:00,
2013-01-09 05:12:00,43.0,39.0,30.65,North,354,5.0,9.0,86,0.00,,,0.00,0.000000,,2013-01-09 10:12:00,
2013-01-09 05:32:00,43.0,39.0,30.64,NNE,17,7.0,12.0,86,0.00,,,0.00,0.000000,,2013-01-09 10:32:00,
2013-01-09 05:42:00,43.0,39.0,30.64,NNE,17,7.0,12.0,86,0.00,,,0.00,0.000000,,2013-01-09 10:42:00,
2013-01-09 05:52:00,43.0,39.0,30.64,NNE,17,7.0,12.0,86,0.00,,,0.00,0.000000,,2013-01-09 10:52:00,
2013-01-09 06:02:00,43.0,39.0,30.64,NNE,17,7.0,12.0,86,0.00,,,0.00,0.000000,,2013-01-09 11:02:00,
2013-01-09 06:12:00,43.0,39.0,30.64,NNE,17,7.0,12.0,86,0.00,,,0.00,0.000000,,2013-01-09 11:12:00,
2013-01-09 06:33:00,42.0,38.0,30.66,North,349,5.0,10.0,87,0.00,,,0.00,0.000000,,2013-01-09 11:33:00,
2013-01-09 06:43:00,42.0,38.0,30.66,North,349,5.0,10.0,87,0.00,,,0.00,0.000000,,2013-01-09 11:43:00,
2013-01-09 06:53:00,42.0,38.0,30.66,North,349,5.0,10.0,87,0.00,,,0.00,0.000000,,2013-01-09 11:53:00,
2013-01-09 07:03:00,42.0,38.0,30.66,North,349,5.0,10.0,87,0.00,,,0.00,0.000000,,2013-01-09 12:03:00,
2013-01-09 07:12:00,42.0,38.0,30.66,North,349,5.0,10.0,87,0.00,,,0.00,0.000000,,2013-01-09 12:12:00,
2013-01-09 07:33:00,43.0,39.0,30.67,NNE,25,8.0,10.0,87,0.00,,,0.00,0.000000,,2013-01-09 12:33:00,
2013-01-09 07:43:00,43.0,39.0,30.67,NNE,25,8.0,10.0,87,0.00,,,0.00,0.000000,,2013-01-09 12:43:00,
2013-01-09 07:53:00,43.0,39.0,30.67,NNE,25,8.0,10.0,87,0.00,,,0.00,0.000000,,2013-01-09 12:53:00,
2013-01-09 08:03:00,43.0,39.0,30.67,NNE,25,8.0,10.0,87,0.00,,,0.00,0.000000,,2013-01-09 13:03:00,
2013-01-09 08:12:00,43.0,39.0,30.67,NNE,25,8.0,10.0,87,0.00,,,0.00,0.000000,,2013-01-09 13:12:00,
2013-01-09 08:33:00,46.0,40.0,30.69,ENE,72,6.0,10.0,80,0.00,,,0.00,12.000000,,2013-01-09 13:33:00,
2013-01-09 08:43:00,46.0,40.0,30.69,ENE,72,6.0,10.0,80,0.00,,,0.00,12.000000,,2013-01-09 13:43:00,
2013-01-09 08:53:00,46.0,40.0,30.69,ENE,72,6.0,10.0,80,0.00,,,0.00,12.000000,,2013-01-09 13:53:00,
2013-01-09 09:03:00,46.0,40.0,30.69,ENE,72,6.0,10.0,80,0.00,,,0.00,12.000000,,2013-01-09 14:03:00,
2013-01-09 09:12:00,46.0,40.0,30.69,ENE,72,6.0,10.0,80,0.00,,,0.00,12.000000,,2013-01-09 14:12:00,
2013-01-09 09:33:00,48.0,40.0,30.69,NE,49,5.0,10.0,74,0.00,,,0.00,60.000000,,2013-01-09 14:33:00,
2013-01-09 09:43:00,48.0,40.0,30.69,NE,49,5.0,10.0,74,0.00,,,0.00,60.000000,,2013-01-09 14:43:00,
2013-01-09 09:53:00,48.0,40.0,30.69,NE,49,5.0,10.0,74,0.00,,,0.00,60.000000,,2013-01-09 14:53:00,
2013-01-09 10:03:00,48.0,40.0,30.69,NE,49,5.0,10.0,74,0.00,,,0.00,60.000000,,2013-01-09 15:03:00,
2013-01-09 10:13:00,48.0,40.0,30.69,NE,49,5.0,10.0,74,0.00,,,0.00,60.000000,,2013-01-09 15:13:00,
2013-01-09 10:33:00,53.0,42.0,30.69,NE,35,5.0,9.0,65,0.00,,,0.00,87.000000,,2013-01-09 15:33:00,
2013-01-09 10:43:00,53.0,42.0,30.69,NE,35,5.0,9.0,65,0.00,,,0.00,87.000000,,2013-01-09 15:43:00,
2013-01-09 10:53:00,53.0,42.0,30.69,NE,35,5.0,9.0,65,0.00,,,0.00,87.000000,,2013-01-09 15:53:00,
2013-01-09 11:04:00,53.0,42.0,30.69,NE,35,5.0,9.0,65,0.00,,,0.00,87.000000,,2013-01-09 16:04:00,
2013-01-09 11:12:00,53.0,42.0,30.69,NE,35,5.0,9.0,65,0.00,,,0.00,87.000000,,2013-01-09 16:12:00,
2013-01-09 11:34:00,65.0,47.0,30.69,North,352,5.0,11.0,53,0.00,,,0.00,558.000000,,2013-01-09 16:34:00,
2013-01-09 11:43:00,65.0,47.0,30.69,North,352,5.0,11.0,53,0.00,,,0.00,558.000000,,2013-01-09 16:43:00,
2013-01-09 11:53:00,65.0,47.0,30.69,North,352,5.0,11.0,53,0.00,,,0.00,558.000000,,2013-01-09 16:53:00,
2013-01-09 12:03:00,65.0,47.0,30.69,North,352,5.0,11.0,53,0.00,,,0.00,558.000000,,2013-01-09 17:03:00,
2013-01-09 12:12:00,65.0,47.0,30.69,North,352,5.0,11.0,53,0.00,,,0.00,558.000000,,2013-01-09 17:12:00,
2013-01-09 12:43:00,71.0,50.0,30.67,NW,326,4.0,10.0,47,0.00,,,0.00,662.000000,,2013-01-09 17:43:00,
2013-01-09 12:53:00,71.0,50.0,30.67,NW,326,4.0,10.0,47,0.00,,,0.00,662.000000,,2013-01-09 17:53:00,
2013-01-09 13:03:00,71.0,50.0,30.67,NW,326,4.0,10.0,47,0.00,,,0.00,662.000000,,2013-01-09 18:03:00,
2013-01-09 13:12:00,71.0,50.0,30.67,NW,326,4.0,10.0,47,0.00,,,0.00,662.000000,,2013-01-09 18:12:00,
2013-01-09 13:33:00,74.0,48.0,30.66,NW,319,4.0,12.0,40,0.00,,,0.00,681.000000,,2013-01-09 18:33:00,
2013-01-09 13:43:00,74.0,48.0,30.66,NW,319,4.0,12.0,40,0.00,,,0.00,681.000000,,2013-01-09 18:43:00,
2013-01-09 13:53:00,74.0,48.0,30.66,NW,319,4.0,12.0,40,0.00,,,0.00,681.000000,,2013-01-09 18:53:00,
2013-01-09 14:03:00,74.0,48.0,30.66,NW,319,4.0,12.0,40,0.00,,,0.00,681.000000,,2013-01-09 19:03:00,
2013-01-09 14:13:00,74.0,48.0,30.66,NW,319,4.0,12.0,40,0.00,,,0.00,681.000000,,2013-01-09 19:13:00,
2013-01-09 15:43:00,70.0,48.0,30.65,SW,217,4.0,10.0,45,-99.99,,,0.00,251.000000,,2013-01-09 20:43:00,
2013-01-09 15:53:00,70.0,48.0,30.65,SW,217,4.0,10.0,45,-99.99,,,0.00,251.000000,,2013-01-09 20:53:00,
2013-01-09 16:04:00,70.0,48.0,30.65,SW,217,4.0,10.0,45,-99.99,,,0.00,251.000000,,2013-01-09 21:04:00,
2013-01-09 16:13:00,70.0,48.0,30.65,SW,217,4.0,10.0,45,-99.99,,,0.00,251.000000,,2013-01-09 21:13:00,
2013-01-09 16:33:00,67.0,48.0,30.64,South,180,2.0,6.0,50,0.00,,,0.00,95.000000,,2013-01-09 21:33:00,
2013-01-09 16:43:00,67.0,48.0,30.64,South,180,2.0,6.0,50,0.00,,,0.00,95.000000,,2013-01-09 21:43:00,
2013-01-09 16:53:00,67.0,48.0,30.64,South,180,2.0,6.0,50,0.00,,,0.00,95.000000,,2013-01-09 21:53:00,
2013-01-09 17:03:00,67.0,48.0,30.64,South,180,2.0,6.0,50,0.00,,,0.00,95.000000,,2013-01-09 22:03:00,
2013-01-09 17:12:00,67.0,48.0,30.64,South,180,2.0,6.0,50,0.00,,,0.00,95.000000,,2013-01-09 22:12:00,
2013-01-09 17:43:00,63.0,48.0,30.64,South,175,3.0,5.0,58,0.00,,,0.00,23.000000,,2013-01-09 22:43:00,
2013-01-09 17:53:00,63.0,48.0,30.64,South,175,3.0,5.0,58,0.00,,,0.00,23.000000,,2013-01-09 22:53:00,
2013-01-09 18:03:00,63.0,48.0,30.64,South,175,3.0,5.0,58,0.00,,,0.00,23.000000,,2013-01-09 23:03:00,
2013-01-09 18:13:00,63.0,48.0,30.64,South,175,3.0,5.0,58,0.00,,,0.00,23.000000,,2013-01-09 23:13:00,
2013-01-09 18:33:00,60.0,48.0,30.65,SSW,199,4.0,5.0,65,0.00,,,0.00,0.000000,,2013-01-09 23:33:00,
2013-01-09 18:43:00,60.0,48.0,30.65,SSW,199,4.0,5.0,65,0.00,,,0.00,0.000000,,2013-01-09 23:43:00,
2013-01-09 18:53:00,60.0,48.0,30.65,SSW,199,4.0,5.0,65,0.00,,,0.00,0.000000,,2013-01-09 23:53:00,
2013-01-09 19:03:00,60.0,48.0,30.65,SSW,199,4.0,5.0,65,0.00,,,0.00,0.000000,,2013-01-10 00:03:00,
2013-01-09 19:12:00,60.0,48.0,30.65,SSW,199,4.0,5.0,65,0.00,,,0.00,0.000000,,2013-01-10 00:12:00,
2013-01-09 19:33:00,59.0,48.0,30.65,SSW,196,4.0,8.0,68,0.00,,,0.00,0.000000,,2013-01-10 00:33:00,
2013-01-09 19:43:00,59.0,48.0,30.65,SSW,196,4.0,8.0,68,0.00,,,0.00,0.000000,,2013-01-10 00:43:00,
2013-01-09 19:53:00,59.0,48.0,30.65,SSW,196,4.0,8.0,68,0.00,,,0.00,0.000000,,2013-01-10 00:53:00,
2013-01-09 20:03:00,59.0,48.0,30.65,SSW,196,4.0,8.0,68,0.00,,,0.00,0.000000,,2013-01-10 01:03:00,
2013-01-09 20:12:00,59.0,48.0,30.65,SSW,196,4.0,8.0,68,0.00,,,0.00,0.000000,,2013-01-10 01:12:00,
2013-01-09 20:33:00,58.0,50.0,30.64,SSW,209,7.0,8.0,74,0.00,,,0.00,0.000000,,2013-01-10 01:33:00,
2013-01-09 20:43:00,58.0,50.0,30.64,SSW,209,7.0,8.0,74,0.00,,,0.00,0.000000,,2013-01-10 01:43:00,
2013-01-09 20:53:00,58.0,50.0,30.64,SSW,209,7.0,8.0,74,0.00,,,0.00,0.000000,,2013-01-10 01:53:00,
2013-01-09 21:03:00,58.0,50.0,30.64,SSW,209,7.0,8.0,74,0.00,,,0.00,0.000000,,2013-01-10 02:03:00,
2013-01-09 21:12:00,58.0,50.0,30.64,SSW,209,7.0,8.0,74,0.00,,,0.00,0.000000,,2013-01-10 02:12:00,
2013-01-09 22:03:00,57.0,50.0,30.66,SW,218,4.0,11.0,77,0.00,,,0.00,0.000000,,2013-01-10 03:03:00,
2013-01-09 22:12:00,57.0,50.0,30.66,SW,218,4.0,11.0,77,0.00,,,0.00,0.000000,,2013-01-10 03:12:00,
2013-01-09 22:33:00,57.0,50.0,30.67,West,270,4.0,7.0,76,0.00,,,0.00,0.000000,,2013-01-10 03:33:00,
2013-01-09 22:43:00,57.0,50.0,30.67,West,270,4.0,7.0,76,0.00,,,0.00,0.000000,,2013-01-10 03:43:00,
2013-01-09 22:53:00,57.0,50.0,30.67,West,270,4.0,7.0,76,0.00,,,0.00,0.000000,,2013-01-10 03:53:00,
2013-01-09 23:02:00,57.0,50.0,30.67,West,270,4.0,7.0,76,0.00,,,0.00,0.000000,,2013-01-10 04:02:00,
2013-01-09 23:12:00,57.0,50.0,30.67,West,270,4.0,7.0,76,0.00,,,0.00,0.000000,,2013-01-10 04:12:00,
2013-01-09 23:32:00,56.0,50.0,30.68,WSW,243,5.0,7.0,80,0.00,,,0.00,0.000000,,2013-01-10 04:32:00,
2013-01-09 23:43:00,56.0,50.0,30.68,WSW,243,5.0,7.0,80,0.00,,,0.00,0.000000,,2013-01-10 04:43:00,
2013-01-09 23:53:00,56.0,50.0,30.68,WSW,243,5.0,7.0,80,0.00,,,0.00,0.000000,,2013-01-10 04:53:00,